createdAt,value
2022-09-09T00:00:08.857Z,99.99
2022-09-09T00:01:08.856Z,99.99
2022-09-09T00:02:08.968Z,99.99
2022-09-09T00:03:08.986Z,99.99
2022-09-09T00:04:08.866Z,99.99
2022-09-09T00:05:08.871Z,99.99
2022-09-09T00:06:08.863Z,99.99
2022-09-09T00:07:08.891Z,99.99
2022-09-09T00:08:08.869Z,99.99
2022-09-09T00:09:08.865Z,99.99
2022-09-09T00:10:08.862Z,99.99
2022-09-09T00:11:08.863Z,99.99
2022-09-09T00:12:08.863Z,99.99
2022-09-09T00:13:08.871Z,99.99
2022-09-09T00:14:08.871Z,99.99
2022-09-09T00:15:08.867Z,99.99
2022-09-09T00:16:08.946Z,99.99
2022-09-09T00:17:08.866Z,99.99
2022-09-09T00:18:08.869Z,99.99
2022-09-09T00:19:08.865Z,99.99
2022-09-09T00:20:08.868Z,99.99
2022-09-09T00:21:08.867Z,99.99
2022-09-09T00:22:08.873Z,99.99
2022-09-09T00:23:08.887Z,99.99
2022-09-09T00:24:08.871Z,99.99
2022-09-09T00:25:08.868Z,99.99
2022-09-09T00:26:08.868Z,99.99
2022-09-09T00:27:08.867Z,99.99
2022-09-09T00:28:08.870Z,99.99
2022-09-09T00:29:08.877Z,99.99
2022-09-09T00:30:08.872Z,99.99
2022-09-09T00:31:08.954Z,99.99
2022-09-09T00:32:08.871Z,99.99
2022-09-09T00:33:13.293Z,99.99
2022-09-09T00:34:08.873Z,99.99
2022-09-09T00:35:08.874Z,99.99
2022-09-09T00:36:08.875Z,99.99
2022-09-09T00:37:08.872Z,99.99
2022-09-09T00:38:08.875Z,99.99
2022-09-09T00:39:08.901Z,99.99
2022-09-09T00:40:08.993Z,99.99
2022-09-09T00:41:08.878Z,99.99
2022-09-09T00:42:08.878Z,99.99
2022-09-09T00:43:08.874Z,99.99
2022-09-09T00:44:08.878Z,99.99
2022-09-09T00:45:08.879Z,99.99
2022-09-09T00:46:08.906Z,99.99
2022-09-09T00:47:08.880Z,99.99
2022-09-09T00:48:08.875Z,99.99
2022-09-09T00:49:08.876Z,99.99
2022-09-09T00:50:08.883Z,99.99
2022-09-09T00:51:08.874Z,99.99
2022-09-09T00:52:08.878Z,99.99
2022-09-09T00:53:08.881Z,99.99
2022-09-09T00:54:08.882Z,99.99
2022-09-09T00:55:08.904Z,99.99
2022-09-09T00:56:08.880Z,99.99
2022-09-09T00:57:08.880Z,99.99
2022-09-09T00:58:08.890Z,99.99
2022-09-09T00:59:08.880Z,99.99
2022-09-09T01:00:08.879Z,99.99
2022-09-09T01:01:08.964Z,99.99
2022-09-09T01:02:08.919Z,99.99
2022-09-09T01:03:08.879Z,99.99
2022-09-09T01:04:08.879Z,99.99
2022-09-09T01:05:08.880Z,99.99
2022-09-09T01:06:08.884Z,99.99
2022-09-09T01:07:08.882Z,99.99
2022-09-09T01:08:08.880Z,99.99
2022-09-09T01:09:08.888Z,99.99
2022-09-09T01:10:08.885Z,99.99
2022-09-09T01:11:08.903Z,99.99
2022-09-09T01:12:08.886Z,99.99
2022-09-09T01:13:08.885Z,99.99
2022-09-09T01:14:08.886Z,99.99
2022-09-09T01:15:08.887Z,99.99
2022-09-09T01:16:08.888Z,99.99
2022-09-09T01:17:08.886Z,99.99
2022-09-09T01:18:08.883Z,99.99
2022-09-09T01:19:08.887Z,99.99
2022-09-09T01:20:08.884Z,99.99
2022-09-09T01:21:08.887Z,99.99
2022-09-09T01:22:08.889Z,99.99
2022-09-09T01:23:08.886Z,99.99
2022-09-09T01:24:08.890Z,99.99
2022-09-09T01:25:08.885Z,99.99
2022-09-09T01:26:08.890Z,99.99
2022-09-09T01:27:08.911Z,99.99
2022-09-09T01:28:08.886Z,99.99
2022-09-09T01:29:08.891Z,99.99
2022-09-09T01:30:08.889Z,99.99
2022-09-09T01:31:08.953Z,99.99
2022-09-09T01:32:08.892Z,99.99
2022-09-09T01:33:08.891Z,99.99
2022-09-09T01:34:08.889Z,99.99
2022-09-09T01:35:08.890Z,99.99
2022-09-09T01:36:08.895Z,99.99
2022-09-09T01:37:08.897Z,99.99
2022-09-09T01:38:08.891Z,99.99
2022-09-09T01:39:08.898Z,99.99
2022-09-09T01:40:08.942Z,99.99
2022-09-09T01:41:08.896Z,99.99
2022-09-09T01:42:08.893Z,99.99
2022-09-09T01:43:08.913Z,99.99
2022-09-09T01:44:08.892Z,99.99
2022-09-09T01:45:08.903Z,99.99
2022-09-09T01:46:08.930Z,99.99
2022-09-09T01:47:08.895Z,99.99
2022-09-09T01:48:08.900Z,99.99
2022-09-09T01:49:08.894Z,99.99
2022-09-09T01:50:08.898Z,99.99
2022-09-09T01:51:08.900Z,99.99
2022-09-09T01:52:08.894Z,99.99
2022-09-09T01:53:08.893Z,99.99
2022-09-09T01:54:08.897Z,99.99
2022-09-09T01:55:08.898Z,99.99
2022-09-09T01:56:08.901Z,99.99
2022-09-09T01:57:08.901Z,99.99
2022-09-09T01:58:08.901Z,99.99
2022-09-09T01:59:08.920Z,99.99
2022-09-09T02:00:08.906Z,99.99
2022-09-09T02:01:08.942Z,99.99
2022-09-09T02:02:08.942Z,99.99
2022-09-09T02:03:08.901Z,99.99
2022-09-09T02:04:08.898Z,99.99
2022-09-09T02:05:08.900Z,99.99
2022-09-09T02:06:08.901Z,99.99
2022-09-09T02:07:09.227Z,99.99
2022-09-09T02:08:08.905Z,99.99
2022-09-09T02:09:08.918Z,99.99
2022-09-09T02:10:08.900Z,99.99
2022-09-09T02:11:08.901Z,99.99
2022-09-09T02:12:08.902Z,99.99
2022-09-09T02:13:08.902Z,99.99
2022-09-09T02:14:08.908Z,99.99
2022-09-09T02:15:08.954Z,99.99
2022-09-09T02:16:08.899Z,99.99
2022-09-09T02:17:08.901Z,99.99
2022-09-09T02:18:08.902Z,99.99
2022-09-09T02:19:08.905Z,99.99
2022-09-09T02:20:08.908Z,99.99
2022-09-09T02:21:08.902Z,99.99
2022-09-09T02:22:08.907Z,99.99
2022-09-09T02:23:08.959Z,99.99
2022-09-09T02:24:08.904Z,99.99
2022-09-09T02:25:08.907Z,99.99
2022-09-09T02:26:08.908Z,99.99
2022-09-09T02:27:09.007Z,99.99
2022-09-09T02:28:08.905Z,99.99
2022-09-09T02:29:08.907Z,99.99
2022-09-09T02:30:08.907Z,99.99
2022-09-09T02:31:08.972Z,99.99
2022-09-09T02:32:08.906Z,99.99
2022-09-09T02:33:08.906Z,99.99
2022-09-09T02:35:08.907Z,99.99
2022-09-09T02:36:08.905Z,99.99
2022-09-09T02:37:08.906Z,99.99
2022-09-09T02:38:08.911Z,99.99
2022-09-09T02:39:08.906Z,99.99
2022-09-09T02:40:09.026Z,99.99
2022-09-09T02:41:08.906Z,99.99
2022-09-09T02:42:08.915Z,99.99
2022-09-09T02:43:08.917Z,99.99
2022-09-09T02:44:08.913Z,99.99
2022-09-09T02:45:08.914Z,99.99
2022-09-09T02:46:09.021Z,99.99
2022-09-09T02:47:08.931Z,99.99
2022-09-09T02:48:08.910Z,99.99
2022-09-09T02:49:08.910Z,99.99
2022-09-09T02:50:08.913Z,99.99
2022-09-09T02:51:08.912Z,99.99
2022-09-09T02:52:08.914Z,99.99
2022-09-09T02:53:08.914Z,99.99
2022-09-09T02:54:08.912Z,99.99
2022-09-09T02:55:08.915Z,99.99
2022-09-09T02:56:08.911Z,99.99
2022-09-09T02:57:08.912Z,99.99
2022-09-09T02:58:08.916Z,99.99
2022-09-09T02:59:08.912Z,99.99
2022-09-09T03:00:08.913Z,99.99
2022-09-09T03:01:08.997Z,99.99
2022-09-09T03:02:08.987Z,99.99
2022-09-09T03:03:08.934Z,99.99
2022-09-09T03:04:08.921Z,99.99
2022-09-09T03:05:08.914Z,99.99
2022-09-09T03:06:08.913Z,99.99
2022-09-09T03:07:08.914Z,99.99
2022-09-09T03:08:08.914Z,99.99
2022-09-09T03:09:08.916Z,99.99
2022-09-09T03:10:08.914Z,99.99
2022-09-09T03:11:08.915Z,99.99
2022-09-09T03:12:08.915Z,99.99
2022-09-09T03:13:08.922Z,99.99
2022-09-09T03:14:08.915Z,99.99
2022-09-09T03:15:08.920Z,99.99
2022-09-09T03:16:08.964Z,99.99
2022-09-09T03:17:08.915Z,99.99
2022-09-09T03:18:08.916Z,99.99
2022-09-09T03:19:08.936Z,99.99
2022-09-09T03:20:08.926Z,99.99
2022-09-09T03:21:08.920Z,99.99
2022-09-09T03:22:08.921Z,99.99
2022-09-09T03:23:12.431Z,99.99
2022-09-09T03:24:08.919Z,99.99
2022-09-09T03:25:08.919Z,99.99
2022-09-09T03:26:08.920Z,99.99
2022-09-09T03:27:08.917Z,99.99
2022-09-09T03:28:08.917Z,99.99
2022-09-09T03:29:08.919Z,99.99
2022-09-09T03:30:08.921Z,99.99
2022-09-09T03:31:08.921Z,99.99
2022-09-09T03:32:09.042Z,99.99
2022-09-09T03:33:08.920Z,99.99
2022-09-09T03:34:08.923Z,99.99
2022-09-09T03:35:08.945Z,99.99
2022-09-09T03:36:08.920Z,99.99
2022-09-09T03:37:08.920Z,99.99
2022-09-09T03:38:08.922Z,99.99
2022-09-09T03:39:08.923Z,99.99
2022-09-09T03:40:08.973Z,99.99
2022-09-09T03:41:08.991Z,99.99
2022-09-09T03:42:08.919Z,99.99
2022-09-09T03:43:08.924Z,99.99
2022-09-09T03:44:08.922Z,99.99
2022-09-09T03:45:08.919Z,99.99
2022-09-09T03:46:08.996Z,99.99
2022-09-09T03:47:08.925Z,99.99
2022-09-09T03:48:08.921Z,99.99
2022-09-09T03:49:08.922Z,99.99
2022-09-09T03:50:08.929Z,99.99
2022-09-09T03:51:08.943Z,99.99
2022-09-09T03:52:08.925Z,99.99
2022-09-09T03:53:08.927Z,99.99
2022-09-09T03:54:08.925Z,99.99
2022-09-09T03:55:08.920Z,99.99
2022-09-09T03:56:08.926Z,99.99
2022-09-09T03:57:08.924Z,99.99
2022-09-09T03:58:08.928Z,99.99
2022-09-09T03:59:08.921Z,99.99
2022-09-09T04:00:08.923Z,99.99
2022-09-09T04:01:08.959Z,99.99
2022-09-09T04:02:08.980Z,99.99
2022-09-09T04:03:08.926Z,99.99
2022-09-09T04:04:08.927Z,99.99
2022-09-09T04:05:08.929Z,99.99
2022-09-09T04:06:08.929Z,99.99
2022-09-09T04:07:08.951Z,99.99
2022-09-09T04:08:08.928Z,99.99
2022-09-09T04:09:08.923Z,99.99
2022-09-09T04:10:08.927Z,99.99
2022-09-09T04:11:08.929Z,99.99
2022-09-09T04:12:08.926Z,99.99
2022-09-09T04:13:08.931Z,99.99
2022-09-09T04:14:08.933Z,99.99
2022-09-09T04:15:08.940Z,99.99
2022-09-09T04:16:09.004Z,99.99
2022-09-09T04:17:09.029Z,99.99
2022-09-09T04:18:08.932Z,99.99
2022-09-09T04:19:08.941Z,99.99
2022-09-09T04:20:08.925Z,99.99
2022-09-09T04:21:08.936Z,99.99
2022-09-09T04:22:08.933Z,99.99
2022-09-09T04:23:08.953Z,99.99
2022-09-09T04:24:08.928Z,99.99
2022-09-09T04:25:08.929Z,99.99
2022-09-09T04:26:08.931Z,99.99
2022-09-09T04:27:08.930Z,99.99
2022-09-09T04:28:08.934Z,99.99
2022-09-09T04:29:08.929Z,99.99
2022-09-09T04:30:08.930Z,99.99
2022-09-09T04:31:08.927Z,99.99
2022-09-09T04:32:08.933Z,99.99
2022-09-09T04:33:08.928Z,99.99
2022-09-09T04:34:08.933Z,99.99
2022-09-09T04:35:08.936Z,99.99
2022-09-09T04:36:08.933Z,99.99
2022-09-09T04:37:08.934Z,99.99
2022-09-09T04:38:08.936Z,99.99
2022-09-09T04:39:08.953Z,99.99
2022-09-09T04:40:09.009Z,99.99
2022-09-09T04:41:08.934Z,99.99
2022-09-09T04:42:08.936Z,99.99
2022-09-09T04:43:12.508Z,99.99
2022-09-09T04:44:08.938Z,99.99
2022-09-09T04:45:08.932Z,99.99
2022-09-09T04:46:09.006Z,99.99
2022-09-09T04:47:08.933Z,99.99
2022-09-09T04:48:08.935Z,99.99
2022-09-09T04:49:11.991Z,99.99
2022-09-09T04:50:08.941Z,99.99
2022-09-09T04:51:08.932Z,99.99
2022-09-09T04:52:08.932Z,99.99
2022-09-09T04:53:08.935Z,99.99
2022-09-09T04:54:08.934Z,99.99
2022-09-09T04:55:08.959Z,99.99
2022-09-09T04:56:08.933Z,99.99
2022-09-09T04:57:08.933Z,99.99
2022-09-09T04:58:08.934Z,99.99
2022-09-09T04:59:08.940Z,99.99
2022-09-09T05:00:08.937Z,99.99
2022-09-09T05:01:09.033Z,99.99
2022-09-09T05:02:08.975Z,99.99
2022-09-09T05:03:08.939Z,99.99
2022-09-09T05:04:08.935Z,99.99
2022-09-09T05:05:08.933Z,99.99
2022-09-09T05:06:08.933Z,99.99
2022-09-09T05:07:08.937Z,99.99
2022-09-09T05:08:08.934Z,99.99
2022-09-09T05:09:08.945Z,99.99
2022-09-09T05:10:08.935Z,99.99
2022-09-09T05:11:08.958Z,99.99
2022-09-09T05:12:08.938Z,99.99
2022-09-09T05:13:08.935Z,99.99
2022-09-09T05:14:08.938Z,99.99
2022-09-09T05:15:08.937Z,99.99
2022-09-09T05:16:09.020Z,99.99
2022-09-09T05:17:08.936Z,99.99
2022-09-09T05:18:08.941Z,99.99
2022-09-09T05:19:08.938Z,99.99
2022-09-09T05:20:10.709Z,99.99
2022-09-09T05:21:08.936Z,99.99
2022-09-09T05:22:08.943Z,99.99
2022-09-09T05:23:08.937Z,99.99
2022-09-09T05:24:09.267Z,99.99
2022-09-09T05:25:08.937Z,99.99
2022-09-09T05:26:08.939Z,99.99
2022-09-09T05:27:08.959Z,99.99
2022-09-09T05:28:08.940Z,99.99
2022-09-09T05:29:08.990Z,99.99
2022-09-09T05:30:08.941Z,99.99
2022-09-09T05:31:09.013Z,99.99
2022-09-09T05:32:11.478Z,99.99
2022-09-09T05:33:08.940Z,99.99
2022-09-09T05:34:08.943Z,99.99
2022-09-09T05:35:08.938Z,99.99
2022-09-09T05:36:08.943Z,99.99
2022-09-09T05:37:08.938Z,99.99
2022-09-09T05:38:08.942Z,99.99
2022-09-09T05:39:08.940Z,99.99
2022-09-09T05:40:08.988Z,99.99
2022-09-09T05:41:08.938Z,99.99
2022-09-09T05:42:08.939Z,99.99
2022-09-09T05:43:08.975Z,99.99
2022-09-09T05:44:08.941Z,99.99
2022-09-09T05:45:08.943Z,99.99
2022-09-09T05:46:09.006Z,99.99
2022-09-09T05:47:09.074Z,99.99
2022-09-09T05:48:08.948Z,99.99
2022-09-09T05:49:08.944Z,99.99
2022-09-09T05:50:08.946Z,99.99
2022-09-09T05:51:08.947Z,99.99
2022-09-09T05:52:08.947Z,99.99
2022-09-09T05:53:08.944Z,99.99
2022-09-09T05:54:08.946Z,99.99
2022-09-09T05:55:08.960Z,99.99
2022-09-09T05:56:08.947Z,99.99
2022-09-09T05:57:08.944Z,99.99
2022-09-09T05:58:08.946Z,99.99
2022-09-09T05:59:08.972Z,99.99
2022-09-09T06:00:08.944Z,99.99
2022-09-09T06:01:08.949Z,99.99
2022-09-09T06:02:09.155Z,99.99
2022-09-09T06:03:09.124Z,99.99
2022-09-09T06:04:08.948Z,99.99
2022-09-09T06:05:08.948Z,99.99
2022-09-09T06:06:08.946Z,99.99
2022-09-09T06:07:08.946Z,99.99
2022-09-09T06:08:08.949Z,99.99
2022-09-09T06:09:08.942Z,99.99
2022-09-09T06:10:08.949Z,99.99
2022-09-09T06:11:08.944Z,99.99
2022-09-09T06:12:08.947Z,99.99
2022-09-09T06:13:08.954Z,99.99
2022-09-09T06:14:08.950Z,99.99
2022-09-09T06:15:08.968Z,99.99
2022-09-09T06:16:09.012Z,99.99
2022-09-09T06:17:08.950Z,99.99
2022-09-09T06:18:08.948Z,99.99
2022-09-09T06:19:08.955Z,99.99
2022-09-09T06:20:08.950Z,99.99
2022-09-09T06:21:08.954Z,99.99
2022-09-09T06:22:08.953Z,99.99
2022-09-09T06:23:08.954Z,99.99
2022-09-09T06:24:08.950Z,99.99
2022-09-09T06:25:08.947Z,99.99
2022-09-09T06:26:08.950Z,99.99
2022-09-09T06:27:08.950Z,99.99
2022-09-09T06:28:08.956Z,99.99
2022-09-09T06:29:08.951Z,99.99
2022-09-09T06:30:08.952Z,99.99
2022-09-09T06:31:09.055Z,99.99
2022-09-09T06:32:08.956Z,99.99
2022-09-09T06:33:08.951Z,99.99
2022-09-09T06:34:08.958Z,99.99
2022-09-09T06:35:08.956Z,99.99
2022-09-09T06:36:08.957Z,99.99
2022-09-09T06:37:08.953Z,99.99
2022-09-09T06:38:08.952Z,99.99
2022-09-09T06:39:14.238Z,99.99
2022-09-09T06:40:09.062Z,99.99
2022-09-09T06:41:08.956Z,99.99
2022-09-09T06:42:08.960Z,99.99
2022-09-09T06:43:08.956Z,99.99
2022-09-09T06:44:08.962Z,99.99
2022-09-09T06:45:08.959Z,99.99
2022-09-09T06:46:09.102Z,99.99
2022-09-09T06:47:08.982Z,99.99
2022-09-09T06:48:08.957Z,99.99
2022-09-09T06:49:08.959Z,99.99
2022-09-09T06:50:09.321Z,99.99
2022-09-09T06:51:08.963Z,99.99
2022-09-09T06:52:10.401Z,99.99
2022-09-09T06:53:08.964Z,99.99
2022-09-09T06:54:08.962Z,99.99
2022-09-09T06:55:08.963Z,99.99
2022-09-09T06:56:08.964Z,99.99
2022-09-09T06:57:33.570Z,99.99
2022-09-09T06:58:08.966Z,99.99
2022-09-09T06:59:08.987Z,99.99
2022-09-09T07:00:08.970Z,94.88
2022-09-09T07:01:09.089Z,99.99
2022-09-09T07:02:09.015Z,92.51
2022-09-09T07:03:09.006Z,99.99
2022-09-09T07:04:08.971Z,99.99
2022-09-09T07:05:08.969Z,96.43
2022-09-09T07:06:08.973Z,93.60
2022-09-09T07:07:08.976Z,95.88
2022-09-09T07:08:08.976Z,95.18
2022-09-09T07:09:08.975Z,99.99
2022-09-09T07:10:08.985Z,97.75
2022-09-09T07:11:12.220Z,99.19
2022-09-09T07:12:08.981Z,96.77
2022-09-09T07:13:08.977Z,99.24
2022-09-09T07:14:08.986Z,92.72
2022-09-09T07:15:08.984Z,92.88
2022-09-09T07:16:09.064Z,94.86
2022-09-09T07:17:08.986Z,90.92
2022-09-09T07:18:08.987Z,90.03
2022-09-09T07:19:09.009Z,89.69
2022-09-09T07:20:08.990Z,91.13
2022-09-09T07:21:08.988Z,91.02
2022-09-09T07:22:08.997Z,92.95
2022-09-09T07:23:08.996Z,90.34
2022-09-09T07:24:08.994Z,90.69
2022-09-09T07:25:08.996Z,89.54
2022-09-09T07:26:09.000Z,88.70
2022-09-09T07:27:09.007Z,90.38
2022-09-09T07:28:09.001Z,88.75
2022-09-09T07:29:09.005Z,89.92
2022-09-09T07:30:09.002Z,88.24
2022-09-09T07:31:09.037Z,88.14
2022-09-09T07:32:09.012Z,89.73
2022-09-09T07:33:09.014Z,85.89
2022-09-09T07:34:09.010Z,86.73
2022-09-09T07:35:09.041Z,88.07
2022-09-09T07:36:09.013Z,88.57
2022-09-09T07:37:09.020Z,86.03
2022-09-09T07:38:09.019Z,82.81
2022-09-09T07:39:09.027Z,83.10
2022-09-09T07:40:09.069Z,83.78
2022-09-09T07:41:09.028Z,83.87
2022-09-09T07:42:09.032Z,84.45
2022-09-09T07:43:09.035Z,81.96
2022-09-09T07:44:09.037Z,82.39
2022-09-09T07:45:09.037Z,85.54
2022-09-09T07:46:09.106Z,82.10
2022-09-09T07:47:09.043Z,83.81
2022-09-09T07:48:09.048Z,80.76
2022-09-09T07:49:09.060Z,84.74
2022-09-09T07:50:09.054Z,84.89
2022-09-09T07:51:09.069Z,84.45
2022-09-09T07:52:09.075Z,83.83
2022-09-09T07:53:09.064Z,83.83
2022-09-09T07:54:09.065Z,79.25
2022-09-09T07:55:09.076Z,81.12
2022-09-09T07:56:09.072Z,82.10
2022-09-09T07:57:09.098Z,84.95
2022-09-09T07:58:09.172Z,85.00
2022-09-09T07:59:09.082Z,81.27
2022-09-09T08:00:09.086Z,81.57
2022-09-09T08:01:09.084Z,79.70
2022-09-09T08:02:09.092Z,82.39
2022-09-09T08:03:09.129Z,84.01
2022-09-09T08:04:09.092Z,84.99
2022-09-09T08:05:09.100Z,86.02
2022-09-09T08:06:09.101Z,82.02
2022-09-09T08:07:09.130Z,83.14
2022-09-09T08:08:09.109Z,81.81
2022-09-09T08:09:09.112Z,83.97
2022-09-09T08:10:09.123Z,84.11
2022-09-09T08:11:09.124Z,85.75
2022-09-09T08:12:09.124Z,83.78
2022-09-09T08:13:18.016Z,86.08
2022-09-09T08:14:09.125Z,83.56
2022-09-09T08:15:09.140Z,87.31
2022-09-09T08:16:09.180Z,87.11
2022-09-09T08:17:09.137Z,88.45
2022-09-09T08:18:09.143Z,84.27
2022-09-09T08:19:09.151Z,83.78
2022-09-09T08:20:09.151Z,86.04
2022-09-09T08:21:09.152Z,83.93
2022-09-09T08:22:09.155Z,82.32
2022-09-09T08:23:09.208Z,81.20
2022-09-09T08:24:09.162Z,80.11
2022-09-09T08:25:09.178Z,79.75
2022-09-09T08:26:09.170Z,82.32
2022-09-09T08:27:09.178Z,80.19
2022-09-09T08:28:09.179Z,82.75
2022-09-09T08:29:09.182Z,83.38
2022-09-09T08:30:09.186Z,83.81
2022-09-09T08:31:09.329Z,84.23
2022-09-09T08:32:09.196Z,86.35
2022-09-09T08:33:09.203Z,85.97
2022-09-09T08:34:09.208Z,83.72
2022-09-09T08:35:09.211Z,82.04
2022-09-09T08:36:09.213Z,82.59
2022-09-09T08:37:09.222Z,81.52
2022-09-09T08:38:11.039Z,81.96
2022-09-09T08:39:09.402Z,83.78
2022-09-09T08:40:09.301Z,85.16
2022-09-09T08:41:09.237Z,85.39
2022-09-09T08:42:09.243Z,82.67
2022-09-09T08:43:09.249Z,85.32
2022-09-09T08:44:09.256Z,85.21
2022-09-09T08:45:09.260Z,84.85
2022-09-09T08:46:09.297Z,85.98
2022-09-09T08:47:09.271Z,87.11
2022-09-09T08:48:09.271Z,88.89
2022-09-09T08:49:09.280Z,88.93
2022-09-09T08:50:09.283Z,90.52
2022-09-09T08:51:09.291Z,89.73
2022-09-09T08:52:09.291Z,93.39
2022-09-09T08:53:09.323Z,90.91
2022-09-09T08:54:09.306Z,91.16
2022-09-09T08:55:09.341Z,90.96
2022-09-09T08:56:09.320Z,94.13
2022-09-09T08:57:09.314Z,90.91
2022-09-09T08:58:09.322Z,91.36
2022-09-09T08:59:09.331Z,93.78
2022-09-09T09:00:09.332Z,94.13
2022-09-09T09:01:09.340Z,90.01
2022-09-09T09:02:13.403Z,90.35
2022-09-09T09:03:09.349Z,90.06
2022-09-09T09:04:09.687Z,92.04
2022-09-09T09:05:09.449Z,91.39
2022-09-09T09:06:09.359Z,92.88
2022-09-09T09:07:09.363Z,93.77
2022-09-09T09:08:09.369Z,92.73
2022-09-09T09:09:09.372Z,91.98
2022-09-09T09:10:30.410Z,92.88
2022-09-09T09:11:09.406Z,93.57
2022-09-09T09:12:09.382Z,92.68
2022-09-09T09:13:09.391Z,91.83
2022-09-09T09:14:09.397Z,93.47
2022-09-09T09:15:09.400Z,95.65
2022-09-09T09:16:09.463Z,91.78
2022-09-09T09:17:09.409Z,93.57
2022-09-09T09:18:09.410Z,93.92
2022-09-09T09:19:09.412Z,92.99
2022-09-09T09:20:09.414Z,90.36
2022-09-09T09:21:09.422Z,89.88
2022-09-09T09:22:09.434Z,87.97
2022-09-09T09:23:09.432Z,86.66
2022-09-09T09:24:09.434Z,84.66
2022-09-09T09:25:09.441Z,84.44
2022-09-09T09:26:09.458Z,83.18
2022-09-09T09:27:09.513Z,81.73
2022-09-09T09:28:09.455Z,78.78
2022-09-09T09:29:09.469Z,78.03
2022-09-09T09:30:25.340Z,79.86
2022-09-09T09:31:09.503Z,77.86
2022-09-09T09:32:09.483Z,77.07
2022-09-09T09:33:09.488Z,79.05
2022-09-09T09:34:09.497Z,75.74
2022-09-09T09:35:09.506Z,74.10
2022-09-09T09:36:09.520Z,76.77
2022-09-09T09:37:09.520Z,74.32
2022-09-09T09:40:09.546Z,74.57
2022-09-09T09:41:09.559Z,75.68
2022-09-09T09:42:09.562Z,75.72
2022-09-09T09:43:09.627Z,77.09
2022-09-09T09:44:09.585Z,77.25
2022-09-09T09:45:09.591Z,79.05
2022-09-09T09:46:18.005Z,76.80
2022-09-09T09:47:09.612Z,78.49
2022-09-09T09:48:13.948Z,76.84
2022-09-09T09:49:09.630Z,74.85
2022-09-09T09:50:09.643Z,73.32
2022-09-09T09:51:09.650Z,74.88
2022-09-09T09:52:09.663Z,74.22
2022-09-09T09:53:09.677Z,71.16
2022-09-09T09:54:09.688Z,73.02
2022-09-09T09:55:09.699Z,72.49
2022-09-09T09:56:09.709Z,73.93
2022-09-09T09:57:09.782Z,69.56
2022-09-09T09:58:09.731Z,72.12
2022-09-09T09:59:17.928Z,67.22
2022-09-09T10:00:09.818Z,68.06
2022-09-09T10:01:09.819Z,68.67
2022-09-09T10:02:09.782Z,66.05
2022-09-09T10:03:09.802Z,66.47
2022-09-09T10:04:09.807Z,68.67
2022-09-09T10:05:09.869Z,68.15
2022-09-09T10:06:09.840Z,67.05
2022-09-09T10:07:09.851Z,67.86
2022-09-09T10:08:09.860Z,67.08
2022-09-09T10:09:09.884Z,63.26
2022-09-09T10:10:09.897Z,65.82
2022-09-09T10:11:09.912Z,63.49
2022-09-09T10:12:09.921Z,65.82
2022-09-09T10:13:09.948Z,66.92
2022-09-09T10:14:09.955Z,68.25
2022-09-09T10:15:09.992Z,63.39
2022-09-09T10:16:10.019Z,63.81
2022-09-09T10:17:09.998Z,64.07
2022-09-09T10:18:10.018Z,65.50
2022-09-09T10:19:10.036Z,66.73
2022-09-09T10:20:10.049Z,66.05
2022-09-09T10:21:10.070Z,68.06
2022-09-09T10:22:10.081Z,67.83
2022-09-09T10:23:10.101Z,70.27
2022-09-09T10:24:10.145Z,67.90
2022-09-09T10:25:10.132Z,66.14
2022-09-09T10:26:10.149Z,64.81
2022-09-09T10:27:10.174Z,69.82
2022-09-09T10:28:10.181Z,67.22
2022-09-09T10:29:10.201Z,68.06
2022-09-09T10:30:10.216Z,65.98
2022-09-09T10:31:10.311Z,69.07
2022-09-09T10:32:10.257Z,68.90
2022-09-09T10:34:10.283Z,67.28
2022-09-09T10:35:10.301Z,64.49
2022-09-09T10:36:10.316Z,63.49
2022-09-09T10:37:10.340Z,64.17
2022-09-09T10:38:10.356Z,65.27
2022-09-09T10:39:10.366Z,64.23
2022-09-09T10:40:10.476Z,65.33
2022-09-09T10:41:10.403Z,65.20
2022-09-09T10:42:10.422Z,62.67
2022-09-09T10:43:10.437Z,63.75
2022-09-09T10:44:10.453Z,63.81
2022-09-09T10:45:10.471Z,64.10
2022-09-09T10:46:10.563Z,63.58
2022-09-09T10:47:10.525Z,65.75
2022-09-09T10:48:10.519Z,66.63
2022-09-09T10:49:10.537Z,69.43
2022-09-09T10:50:10.640Z,68.39
2022-09-09T10:51:10.574Z,71.46
2022-09-09T10:52:10.586Z,73.16
2022-09-09T10:53:10.602Z,74.47
2022-09-09T10:54:10.624Z,71.27
2022-09-09T10:55:10.637Z,74.25
2022-09-09T10:56:10.652Z,73.69
2022-09-09T10:57:10.671Z,75.26
2022-09-09T10:58:10.682Z,74.02
2022-09-09T10:59:10.702Z,73.96
2022-09-09T11:00:10.713Z,75.04
2022-09-09T11:01:10.803Z,75.63
2022-09-09T11:02:10.746Z,77.40
2022-09-09T11:03:10.776Z,76.81
2022-09-09T11:04:10.834Z,75.50
2022-09-09T11:05:10.786Z,75.33
2022-09-09T11:06:10.890Z,73.92
2022-09-09T11:07:12.051Z,72.80
2022-09-09T11:08:10.894Z,70.21
2022-09-09T11:09:10.843Z,70.64
2022-09-09T11:10:10.857Z,68.85
2022-09-09T11:11:10.870Z,69.96
2022-09-09T11:12:10.885Z,71.65
2022-09-09T11:13:10.903Z,69.73
2022-09-09T11:14:10.912Z,67.67
2022-09-09T11:15:10.946Z,68.58
2022-09-09T11:16:10.941Z,65.69
2022-09-09T11:17:10.958Z,64.00
2022-09-09T11:18:10.969Z,64.46
2022-09-09T11:19:11.000Z,65.47
2022-09-09T11:20:11.000Z,63.26
2022-09-09T11:21:11.014Z,61.68
2022-09-09T11:22:11.026Z,63.62
2022-09-09T11:23:11.043Z,64.78
2022-09-09T11:24:11.057Z,64.17
2022-09-09T11:25:11.106Z,65.43
2022-09-09T11:26:11.087Z,65.82
2022-09-09T11:27:11.129Z,65.85
2022-09-09T11:28:11.107Z,62.77
2022-09-09T11:29:11.127Z,61.02
2022-09-09T11:30:11.137Z,62.32
2022-09-09T11:31:11.195Z,61.51
2022-09-09T11:32:11.167Z,62.19
2022-09-09T11:33:11.183Z,63.49
2022-09-09T11:34:11.195Z,60.84
2022-09-09T11:35:11.233Z,63.23
2022-09-09T11:36:11.225Z,63.78
2022-09-09T11:37:11.233Z,60.41
2022-09-09T11:38:11.253Z,61.58
2022-09-09T11:39:11.267Z,63.32
2022-09-09T11:40:11.344Z,63.75
2022-09-09T11:41:11.297Z,60.97
2022-09-09T11:42:11.314Z,62.01
2022-09-09T11:43:11.320Z,59.88
2022-09-09T11:44:11.342Z,59.94
2022-09-09T11:45:11.347Z,59.42
2022-09-09T11:46:11.403Z,60.20
2022-09-09T11:47:11.377Z,60.19
2022-09-09T11:48:11.393Z,61.84
2022-09-09T11:49:11.406Z,60.55
2022-09-09T11:50:11.417Z,61.78
2022-09-09T11:51:16.664Z,61.21
2022-09-09T11:52:11.447Z,58.11
2022-09-09T11:53:11.461Z,57.81
2022-09-09T11:54:11.497Z,58.65
2022-09-09T11:55:11.492Z,58.07
2022-09-09T11:56:11.500Z,58.52
2022-09-09T11:57:11.514Z,60.39
2022-09-09T11:58:11.528Z,59.94
2022-09-09T11:59:11.538Z,60.54
2022-09-09T12:00:11.553Z,61.00
2022-09-09T12:01:11.580Z,61.58
2022-09-09T12:02:11.605Z,60.38
2022-09-09T12:03:11.595Z,61.91
2022-09-09T12:04:11.609Z,63.23
2022-09-09T12:05:11.691Z,62.23
2022-09-09T12:06:11.631Z,65.08
2022-09-09T12:07:11.667Z,62.71
2022-09-09T12:08:11.661Z,67.05
2022-09-09T12:09:11.670Z,64.81
2022-09-09T12:10:11.687Z,64.81
2022-09-09T12:11:11.696Z,66.40
2022-09-09T12:12:11.709Z,68.13
2022-09-09T12:13:11.716Z,69.27
2022-09-09T12:14:11.730Z,68.10
2022-09-09T12:15:11.750Z,68.62
2022-09-09T12:16:11.787Z,71.31
2022-09-09T12:17:11.767Z,72.71
2022-09-09T12:18:11.778Z,69.71
2022-09-09T12:19:11.793Z,71.47
2022-09-09T12:20:11.801Z,72.88
2022-09-09T12:21:11.814Z,73.02
2022-09-09T12:22:11.822Z,74.23
2022-09-09T12:23:11.859Z,75.41
2022-09-09T12:24:11.845Z,73.88
2022-09-09T12:25:11.856Z,77.42
2022-09-09T12:26:11.864Z,74.04
2022-09-09T12:27:11.875Z,71.91
2022-09-09T12:28:11.885Z,73.68
2022-09-09T12:29:11.894Z,75.81
2022-09-09T12:30:11.910Z,73.35
2022-09-09T12:31:11.956Z,74.82
2022-09-09T12:32:12.427Z,74.13
2022-09-09T12:33:11.933Z,75.12
2022-09-09T12:34:11.944Z,76.85
2022-09-09T12:35:11.951Z,73.11
2022-09-09T12:36:11.963Z,73.41
2022-09-09T12:37:11.974Z,74.10
2022-09-09T12:38:11.979Z,73.50
2022-09-09T12:39:12.022Z,71.74
2022-09-09T12:40:12.077Z,71.67
2022-09-09T12:41:12.013Z,73.74
2022-09-09T12:42:12.015Z,73.15
2022-09-09T12:43:12.029Z,73.88
2022-09-09T12:44:12.038Z,73.32
2022-09-09T12:45:12.045Z,74.24
2022-09-09T12:46:12.112Z,73.98
2022-09-09T12:47:12.060Z,75.16
2022-09-09T12:48:12.068Z,75.07
2022-09-09T12:49:12.077Z,73.88
2022-09-09T12:50:12.086Z,74.48
2022-09-09T12:51:12.099Z,74.31
2022-09-09T12:52:12.107Z,75.24
2022-09-09T12:53:12.110Z,75.53
2022-09-09T12:54:12.125Z,76.22
2022-09-09T12:55:12.150Z,75.30
2022-09-09T12:56:12.143Z,73.82